Time;durP1;ratioP1;P1;durP2;ratioP2;P2;SDS_P1;SDS_P2;PMS_P1;PMS_P2;Temp;Humidity;BMP_temperature;BMP_pressure;BME280_temperature;BME280_humidity;BME280_pressure;Samples;Min_cycle;Max_cycle;Signal;HPM_P1;HPM_P2
2020/12/13 00:01:16;;;;;;;42.60;21.80;;;3.40;99.90;;;;;;4958914;28;20270;-51
2020/12/13 00:03:45;;;;;;;39.72;20.58;;;3.40;99.90;;;;;;4975673;28;20203;-49
2020/12/13 00:06:13;;;;;;;32.55;20.05;;;3.40;99.90;;;;;;4986258;28;20230;-50
2020/12/13 00:08:40;;;;;;;33.80;18.98;;;3.40;99.90;;;;;;4975674;28;20183;-52
2020/12/13 00:11:07;;;;;;;30.60;18.10;;;3.30;99.90;;;;;;4975710;28;20179;-52
2020/12/13 00:13:35;;;;;;;47.47;22.55;;;3.20;99.90;;;;;;4975710;28;20175;-51
2020/12/13 00:16:02;;;;;;;35.85;18.17;;;3.30;99.90;;;;;;4975550;28;20221;-49
2020/12/13 00:18:30;;;;;;;39.95;22.60;;;3.40;99.90;;;;;;4975504;28;20192;-51
2020/12/13 00:20:58;;;;;;;41.55;19.35;;;3.40;99.90;;;;;;4975509;28;20203;-51
2020/12/13 00:23:25;;;;;;;36.70;20.42;;;3.50;99.90;;;;;;4975661;28;20211;-51
2020/12/13 00:25:53;;;;;;;40.05;20.20;;;3.50;99.90;;;;;;4975509;28;20245;-50
2020/12/13 00:28:20;;;;;;;34.97;18.75;;;3.40;99.90;;;;;;4975424;28;20262;-53
2020/12/13 00:30:48;;;;;;;41.05;21.75;;;3.20;99.90;;;;;;4975565;28;20183;-49
2020/12/13 00:33:15;;;;;;;31.02;16.40;;;3.30;99.90;;;;;;4975432;28;20175;-50
2020/12/13 00:35:43;;;;;;;42.92;22.17;;;3.30;99.90;;;;;;4975489;28;20219;-52
2020/12/13 00:38:10;;;;;;;35.65;19.40;;;3.30;99.90;;;;;;4975308;28;20187;-55
2020/12/13 00:40:37;;;;;;;31.60;23.77;;;3.20;99.90;;;;;;4975112;28;20217;-55
2020/12/13 00:43:04;;;;;;;42.78;17.85;;;3.10;99.90;;;;;;4977462;28;20215;-54
2020/12/13 00:45:31;;;;;;;36.63;19.05;;;3.10;99.90;;;;;;4975778;28;20219;-52
2020/12/13 00:47:59;;;;;;;36.55;22.27;;;3.10;99.90;;;;;;4976045;28;20603;-51
2020/12/13 00:50:27;;;;;;;34.85;20.55;;;2.90;99.90;;;;;;4974069;28;20191;-50
2020/12/13 00:52:56;;;;;;;43.80;23.30;;;2.80;99.90;;;;;;4975564;28;20188;-50
2020/12/13 00:55:23;;;;;;;29.55;17.83;;;2.80;99.90;;;;;;4974236;28;20513;-53
2020/12/13 00:57:50;;;;;;;38.05;22.67;;;2.80;99.90;;;;;;4974749;28;20195;-53
2020/12/13 01:00:18;;;;;;;43.53;22.58;;;2.80;99.90;;;;;;4975543;28;20207;-54
2020/12/13 01:02:45;;;;;;;46.97;20.45;;;2.80;99.90;;;;;;4975726;28;20192;-50
2020/12/13 01:05:12;;;;;;;36.20;19.05;;;2.70;99.90;;;;;;4974813;28;20214;-51
2020/12/13 01:07:39;;;;;;;41.72;21.30;;;2.70;99.90;;;;;;4974782;28;20637;-55
2020/12/13 01:10:07;;;;;;;40.72;18.63;;;2.70;99.90;;;;;;4975525;28;20183;-52
2020/12/13 01:12:34;;;;;;;28.65;17.85;;;2.70;99.90;;;;;;4975073;28;20179;-52
2020/12/13 01:15:01;;;;;;;47.50;22.75;;;2.60;99.90;;;;;;4975041;28;20577;-52
2020/12/13 01:17:29;;;;;;;56.88;20.05;;;2.60;99.90;;;;;;4975329;28;20184;-52
2020/12/13 01:19:56;;;;;;;27.67;12.90;;;2.60;99.90;;;;;;4974692;28;20262;-52
2020/12/13 01:22:23;;;;;;;31.75;16.90;;;2.60;99.90;;;;;;4974335;28;20188;-52
2020/12/13 01:24:51;;;;;;;37.63;19.30;;;2.60;99.90;;;;;;4974370;28;20179;-52
2020/12/13 01:27:19;;;;;;;40.58;20.05;;;2.50;99.90;;;;;;4974180;28;20191;-53
2020/12/13 01:29:46;;;;;;;34.85;15.60;;;2.50;99.90;;;;;;4974037;28;20192;-47
2020/12/13 01:32:13;;;;;;;31.40;14.20;;;2.50;99.90;;;;;;4974345;28;20179;-55
2020/12/13 01:34:40;;;;;;;52.75;20.42;;;2.50;99.90;;;;;;4974055;28;20182;-53
2020/12/13 01:37:08;;;;;;;41.72;22.58;;;2.50;99.90;;;;;;4974056;28;20206;-52
2020/12/13 01:39:35;;;;;;;36.08;18.67;;;2.60;99.90;;;;;;4974359;28;20664;-49
2020/12/13 01:42:02;;;;;;;38.28;20.00;;;2.60;99.90;;;;;;4974271;28;20257;-53
2020/12/13 01:44:32;;;;;;;27.90;15.63;;;2.60;99.90;;;;;;4974398;28;20180;-54
2020/12/13 01:47:00;;;;;;;39.42;21.10;;;2.60;99.90;;;;;;4974576;28;20640;-49
2020/12/13 01:49:32;;;;;;;35.00;22.63;;;2.60;99.90;;;;;;4974163;28;20553;-54
2020/12/13 01:52:38;;;;;;;38.95;20.08;;;2.50;99.90;;;;;;4973957;28;20412;-53
2020/12/13 01:55:01;;;;;;;30.55;17.80;;;2.60;99.90;;;;;;4973593;28;20198;-56
2020/12/13 01:57:33;;;;;;;36.10;17.10;;;2.60;99.90;;;;;;4973679;28;20183;-50
2020/12/13 02:00:07;;;;;;;23.05;14.60;;;2.50;99.90;;;;;;4973443;28;20271;-57
2020/12/13 02:02:39;;;;;;;39.22;18.00;;;2.50;99.90;;;;;;4973176;28;20176;-53
2020/12/13 02:05:08;;;;;;;33.13;19.40;;;2.50;99.90;;;;;;4973556;28;20576;-56
2020/12/13 02:07:37;;;;;;;39.70;18.35;;;2.60;99.90;;;;;;4973588;28;20194;-51
2020/12/13 02:10:07;;;;;;;41.47;22.08;;;2.60;99.90;;;;;;4973518;28;20171;-52
2020/12/13 02:12:36;;;;;;;47.72;24.95;;;2.50;99.90;;;;;;4973471;28;20176;-52
2020/12/13 02:15:05;;;;;;;24.30;13.90;;;2.60;99.90;;;;;;4973500;28;20211;-49
2020/12/13 02:17:35;;;;;;;48.28;24.75;;;2.70;99.90;;;;;;4988801;28;20274;-52
2020/12/13 02:20:06;;;;;;;46.22;23.67;;;2.80;99.90;;;;;;4974116;28;20222;-53
2020/12/13 02:22:37;;;;;;;50.78;21.05;;;2.90;99.90;;;;;;4974651;28;20262;-51
2020/12/13 02:25:10;;;;;;;53.72;22.65;;;2.90;99.90;;;;;;4974814;28;20298;-53
2020/12/13 02:27:37;;;;;;;40.95;18.80;;;2.90;99.90;;;;;;4973982;28;20605;-52
2020/12/13 02:30:06;;;;;;;49.42;21.17;;;2.90;99.90;;;;;;4973920;28;20234;-52
2020/12/13 02:32:33;;;;;;;33.15;18.60;;;2.90;99.90;;;;;;4974380;28;20172;-49
2020/12/13 02:35:01;;;;;;;37.25;21.88;;;3.00;99.90;;;;;;4973208;28;20778;-54
2020/12/13 02:37:28;;;;;;;34.38;20.15;;;3.00;99.90;;;;;;4973022;28;20184;-54
2020/12/13 02:40:37;;;;;;;47.08;21.52;;;2.90;99.90;;;;;;4972863;28;20209;-50
2020/12/13 02:43:05;;;;;;;41.20;19.67;;;2.90;99.90;;;;;;4973235;28;20199;-52
2020/12/13 02:45:32;;;;;;;51.58;22.25;;;2.90;99.90;;;;;;4972894;28;20212;-50
2020/12/13 02:48:00;;;;;;;43.67;20.05;;;2.90;99.90;;;;;;4972706;28;20195;-51
2020/12/13 02:50:27;;;;;;;41.60;19.70;;;2.90;99.90;;;;;;4972951;28;20605;-51
2020/12/13 02:52:54;;;;;;;37.80;19.70;;;2.80;99.90;;;;;;4972739;28;20176;-52
2020/12/13 02:55:21;;;;;;;42.95;19.25;;;2.80;99.90;;;;;;4972819;28;20215;-53
2020/12/13 02:57:48;;;;;;;47.30;22.30;;;2.90;99.90;;;;;;4973234;28;20274;-55
2020/12/13 03:00:17;;;;;;;28.58;16.48;;;3.00;99.90;;;;;;4972861;28;20184;-54
2020/12/13 03:02:44;;;;;;;43.72;21.45;;;2.90;99.90;;;;;;4972834;28;20198;-54
2020/12/13 03:05:11;;;;;;;41.25;19.83;;;2.90;99.90;;;;;;4972865;28;20207;-44
2020/12/13 03:07:38;;;;;;;47.25;19.17;;;2.90;99.90;;;;;;4973236;28;20202;-43
2020/12/13 03:10:05;;;;;;;31.02;16.02;;;3.00;99.90;;;;;;4973211;28;20175;-49
2020/12/13 03:12:32;;;;;;;29.80;19.27;;;3.00;99.90;;;;;;4973170;28;20191;-44
2020/12/13 03:14:59;;;;;;;44.05;21.48;;;3.10;99.90;;;;;;4976775;28;20207;-47
2020/12/13 03:17:27;;;;;;;34.20;18.75;;;3.00;99.90;;;;;;4976734;28;20176;-48
2020/12/13 03:19:54;;;;;;;41.75;22.25;;;2.90;99.90;;;;;;4976894;28;20546;-43
2020/12/13 03:22:22;;;;;;;37.83;19.25;;;2.80;99.90;;;;;;4976697;28;20210;-46
2020/12/13 03:24:49;;;;;;;42.13;23.90;;;2.90;99.90;;;;;;4976774;28;20184;-44
2020/12/13 03:27:16;;;;;;;37.90;20.13;;;2.90;99.90;;;;;;4976636;28;20179;-47
2020/12/13 03:29:45;;;;;;;40.63;19.90;;;3.00;99.90;;;;;;4976664;28;20187;-47
2020/12/13 03:32:12;;;;;;;39.83;20.83;;;3.00;99.90;;;;;;4976550;28;20219;-47
2020/12/13 03:34:41;;;;;;;30.77;15.15;;;2.90;99.90;;;;;;4976905;28;20661;-53
2020/12/13 03:37:08;;;;;;;36.45;19.13;;;2.80;99.90;;;;;;4976430;28;20351;-45
2020/12/13 03:39:35;;;;;;;37.97;23.58;;;2.70;99.90;;;;;;4976993;28;20211;-44
2020/12/13 03:42:03;;;;;;;39.88;20.25;;;2.70;99.90;;;;;;4976595;28;20210;-45
2020/12/13 03:44:30;;;;;;;40.08;21.45;;;2.70;99.90;;;;;;4975017;28;20191;-44
2020/12/13 03:46:57;;;;;;;42.20;22.85;;;2.70;99.90;;;;;;4975135;28;20216;-43
2020/12/13 03:49:25;;;;;;;42.85;22.65;;;2.70;99.90;;;;;;4976080;28;20191;-44
2020/12/13 03:51:53;;;;;;;40.85;18.40;;;2.60;99.90;;;;;;4976317;28;20172;-47
2020/12/13 03:54:20;;;;;;;25.83;18.80;;;2.70;99.90;;;;;;4974717;28;20184;-53
2020/12/13 03:56:48;;;;;;;38.17;20.42;;;2.60;99.90;;;;;;4975854;28;20211;-45
2020/12/13 03:59:15;;;;;;;38.03;20.33;;;2.60;99.90;;;;;;4976005;28;20190;-48
2020/12/13 04:01:42;;;;;;;38.08;20.45;;;2.70;99.90;;;;;;4976010;28;20550;-44
2020/12/13 04:04:09;;;;;;;51.25;23.10;;;2.70;99.90;;;;;;4975881;28;20186;-44
2020/12/13 04:06:36;;;;;;;42.33;19.60;;;2.60;99.90;;;;;;4975807;28;20203;-45
2020/12/13 04:09:04;;;;;;;47.88;20.92;;;2.60;99.90;;;;;;4975835;28;20202;-46
2020/12/13 04:11:32;;;;;;;48.25;22.25;;;2.70;99.90;;;;;;4975981;28;20254;-43
2020/12/13 04:13:59;;;;;;;28.65;17.92;;;2.70;99.90;;;;;;4976056;28;20588;-44
2020/12/13 04:16:30;;;;;;;58.70;21.10;;;2.60;99.90;;;;;;4975520;28;20706;-45
2020/12/13 04:18:57;;;;;;;35.47;18.50;;;2.60;99.90;;;;;;4975729;28;20184;-51
2020/12/13 04:21:26;;;;;;;39.40;23.00;;;2.60;99.90;;;;;;4975761;28;20207;-46
2020/12/13 04:23:53;;;;;;;54.75;24.27;;;2.60;99.90;;;;;;4975044;28;20195;-46
2020/12/13 04:26:21;;;;;;;43.28;18.25;;;2.60;99.90;;;;;;4975854;28;20212;-45
2020/12/13 04:28:49;;;;;;;35.60;18.27;;;2.60;99.90;;;;;;4975916;28;20544;-45
2020/12/13 04:31:16;;;;;;;30.63;20.48;;;2.60;99.90;;;;;;4975511;28;20176;-47
2020/12/13 04:33:43;;;;;;;44.70;23.92;;;2.50;99.90;;;;;;4975854;28;20272;-45
2020/12/13 04:36:10;;;;;;;44.42;21.40;;;2.60;99.90;;;;;;4976820;28;20207;-46
2020/12/13 04:38:38;;;;;;;40.55;19.02;;;2.60;99.90;;;;;;4976311;28;20203;-45
2020/12/13 04:41:05;;;;;;;40.33;23.73;;;2.60;99.90;;;;;;4975813;28;20586;-45
2020/12/13 04:43:33;;;;;;;55.75;25.30;;;2.70;99.90;;;;;;4975358;28;20179;-50
2020/12/13 04:46:00;;;;;;;48.00;21.88;;;2.70;99.90;;;;;;4975152;28;20212;-45
2020/12/13 04:48:28;;;;;;;48.35;22.63;;;2.90;99.90;;;;;;4974042;28;20221;-44
2020/12/13 04:50:59;;;;;;;35.17;20.92;;;2.90;99.90;;;;;;4975283;28;20210;-44
2020/12/13 04:53:28;;;;;;;45.95;20.40;;;2.90;99.90;;;;;;4975338;28;20176;-46
2020/12/13 04:55:57;;;;;;;62.75;20.50;;;3.00;99.90;;;;;;4975448;28;20610;-46
2020/12/13 04:58:26;;;;;;;42.60;20.27;;;3.10;99.90;;;;;;4975434;28;20188;-43
2020/12/13 05:00:56;;;;;;;45.30;21.52;;;3.00;99.90;;;;;;4975642;28;20176;-47
2020/12/13 05:03:24;;;;;;;29.05;16.80;;;2.90;99.90;;;;;;4975839;28;20555;-47
2020/12/13 05:05:58;;;;;;;35.33;21.63;;;2.80;99.90;;;;;;4975097;28;20608;-48
2020/12/13 05:08:25;;;;;;;44.50;22.90;;;2.90;99.90;;;;;;4975023;28;20272;-54
2020/12/13 05:10:53;;;;;;;45.67;22.20;;;2.90;99.90;;;;;;4974450;28;20176;-56
2020/12/13 05:13:20;;;;;;;41.92;21.35;;;2.90;99.90;;;;;;4974888;28;20661;-49
2020/12/13 05:15:47;;;;;;;45.72;18.75;;;2.80;99.90;;;;;;4974380;28;20247;-53
2020/12/13 05:18:16;;;;;;;30.83;15.60;;;2.70;99.90;;;;;;4974881;28;20199;-53
2020/12/13 05:20:44;;;;;;;51.20;22.55;;;2.70;99.90;;;;;;4974725;28;20198;-51
2020/12/13 05:23:11;;;;;;;43.65;23.60;;;2.70;99.90;;;;;;4974631;28;20192;-50
2020/12/13 05:25:40;;;;;;;43.97;22.80;;;2.70;99.90;;;;;;4974062;28;20207;-52
2020/12/13 05:28:08;;;;;;;43.17;19.25;;;2.60;99.90;;;;;;4974274;28;20569;-53
2020/12/13 05:30:40;;;;;;;51.28;18.85;;;2.60;99.90;;;;;;4974389;28;20179;-50
2020/12/13 05:33:11;;;;;;;36.65;18.90;;;2.60;99.90;;;;;;4974413;28;20199;-50
2020/12/13 05:35:40;;;;;;;36.20;18.30;;;2.60;99.90;;;;;;4973334;28;20603;-49
2020/12/13 05:38:11;;;;;;;38.40;20.75;;;2.60;99.90;;;;;;4974043;28;20219;-51
2020/12/13 05:40:39;;;;;;;46.95;23.88;;;2.60;99.90;;;;;;4973853;28;20195;-50
2020/12/13 05:43:10;;;;;;;50.70;19.85;;;2.60;99.90;;;;;;4974009;28;20258;-50
2020/12/13 05:51:27;;;;;;;46.83;21.35;;;2.60;99.90;;;;;;4954512;28;20259;-56
2020/12/13 05:53:55;;;;;;;30.58;21.73;;;2.60;99.90;;;;;;4954479;29;20180;-51
2020/12/13 05:56:23;;;;;;;38.75;16.67;;;2.60;99.90;;;;;;4965172;28;20269;-52
2020/12/13 05:58:52;;;;;;;38.15;17.65;;;2.50;99.90;;;;;;4973656;28;20638;-52
2020/12/13 06:01:23;;;;;;;41.80;17.20;;;2.50;99.90;;;;;;4973675;28;20202;-53
2020/12/13 06:03:53;;;;;;;42.50;20.58;;;2.50;99.90;;;;;;4955655;28;20200;-56
2020/12/13 06:06:24;;;;;;;32.17;18.08;;;2.50;99.90;;;;;;4973236;28;20714;-52
2020/12/13 06:09:06;;;;;;;31.20;17.13;;;2.40;99.90;;;;;;4973702;28;20179;-53
2020/12/13 06:11:43;;;;;;;40.97;19.63;;;2.50;99.90;;;;;;4973667;28;20656;-50
2020/12/13 06:14:18;;;;;;;48.13;16.67;;;2.60;99.90;;;;;;4973465;28;20332;-55
2020/12/13 06:16:46;;;;;;;59.83;22.00;;;2.60;99.90;;;;;;4972984;28;20301;-51
2020/12/13 06:19:18;;;;;;;54.83;21.05;;;2.80;99.90;;;;;;4973640;28;20664;-54
2020/12/13 06:21:48;;;;;;;37.78;17.95;;;2.70;99.90;;;;;;4973605;28;20613;-55
2020/12/13 06:24:15;;;;;;;30.00;20.33;;;2.70;99.90;;;;;;4973799;28;20262;-49
2020/12/13 06:26:44;;;;;;;38.63;20.15;;;2.70;99.90;;;;;;4973526;28;20271;-55
2020/12/13 06:29:11;;;;;;;39.97;20.98;;;2.70;99.90;;;;;;4973580;28;20222;-50
2020/12/13 06:31:39;;;;;;;39.78;19.90;;;2.70;99.90;;;;;;4973869;28;20207;-55
2020/12/13 06:34:08;;;;;;;40.63;21.45;;;2.70;99.90;;;;;;4973690;28;20230;-55
2020/12/13 06:36:37;;;;;;;42.65;23.10;;;2.70;99.90;;;;;;4972955;28;20207;-53
2020/12/13 06:39:12;;;;;;;37.72;20.63;;;2.70;99.90;;;;;;4972770;28;20243;-50
2020/12/13 06:41:41;;;;;;;26.60;15.88;;;2.70;99.90;;;;;;4972770;28;20313;-51
2020/12/13 06:44:09;;;;;;;39.45;21.25;;;2.70;99.90;;;;;;4955896;28;20549;-50
2020/12/13 06:46:40;;;;;;;30.02;17.17;;;2.70;99.90;;;;;;4972744;28;20222;-55
2020/12/13 06:49:08;;;;;;;35.60;20.05;;;2.70;99.90;;;;;;4972889;28;20180;-50
2020/12/13 06:51:39;;;;;;;43.33;20.40;;;2.60;99.90;;;;;;4972728;28;20235;-50
2020/12/13 06:54:09;;;;;;;45.92;21.05;;;2.70;99.90;;;;;;4955461;28;20553;-54
2020/12/13 06:56:38;;;;;;;36.33;20.48;;;2.80;99.90;;;;;;4972664;28;20219;-49
2020/12/13 06:59:07;;;;;;;40.53;19.10;;;2.80;99.90;;;;;;4972886;28;20219;-59
2020/12/13 07:01:39;;;;;;;48.38;18.85;;;2.80;99.90;;;;;;4972580;28;20218;-54
2020/12/13 07:04:35;;;;;;;33.78;16.40;;;2.90;99.90;;;;;;4972899;28;20182;-49
2020/12/13 07:07:07;;;;;;;33.00;16.55;;;2.80;99.90;;;;;;4939024;28;20570;-50
2020/12/13 07:09:35;;;;;;;49.83;20.73;;;2.80;99.90;;;;;;4972988;28;20176;-53
2020/12/13 07:12:03;;;;;;;45.97;21.33;;;2.80;99.90;;;;;;4972823;28;20186;-55
2020/12/13 07:14:33;;;;;;;36.55;16.33;;;2.80;99.90;;;;;;4972756;28;20226;-51
2020/12/13 07:17:03;;;;;;;27.50;17.58;;;2.80;99.90;;;;;;4972971;28;20295;-50
2020/12/13 07:19:32;;;;;;;44.58;18.33;;;2.70;99.90;;;;;;4973580;28;20187;-53
2020/12/13 07:22:02;;;;;;;30.77;18.77;;;2.80;99.90;;;;;;4973439;28;20207;-50
2020/12/13 07:24:29;;;;;;;29.50;16.63;;;2.70;99.90;;;;;;4972988;28;20175;-53
2020/12/13 07:26:58;;;;;;;38.90;18.65;;;2.70;99.90;;;;;;4972702;28;20207;-54
2020/12/13 07:29:28;;;;;;;56.05;40.42;;;2.70;99.90;;;;;;4972240;28;20188;-49
2020/12/13 07:31:56;;;;;;;30.77;15.70;;;2.70;99.90;;;;;;4972622;28;20194;-49
2020/12/13 07:34:24;;;;;;;33.40;20.45;;;2.70;99.90;;;;;;4972676;28;20191;-48
2020/12/13 07:36:53;;;;;;;31.55;16.65;;;2.80;99.90;;;;;;4972488;28;20243;-54
2020/12/13 07:39:22;;;;;;;23.98;14.70;;;2.80;99.90;;;;;;4972243;28;20219;-55
2020/12/13 07:41:50;;;;;;;33.65;17.40;;;2.80;99.90;;;;;;4970754;28;20207;-50
2020/12/13 07:44:27;;;;;;;46.20;21.27;;;2.80;99.90;;;;;;4970672;28;20724;-51
2020/12/13 07:46:55;;;;;;;26.13;17.92;;;2.80;99.90;;;;;;4972091;28;20207;-49
2020/12/13 07:49:22;;;;;;;54.08;22.67;;;2.80;99.90;;;;;;4972184;28;20283;-51
2020/12/13 07:51:51;;;;;;;45.05;19.17;;;2.70;99.90;;;;;;4953221;29;20192;-50
2020/12/13 07:54:20;;;;;;;45.90;21.15;;;2.70;99.90;;;;;;4953308;28;20183;-46
2020/12/13 07:56:49;;;;;;;34.75;18.90;;;2.70;99.90;;;;;;4953023;28;20212;-51
2020/12/13 07:59:17;;;;;;;35.33;16.73;;;2.80;99.90;;;;;;4954235;28;20196;-47
2020/12/13 08:01:47;;;;;;;33.13;17.45;;;2.90;99.90;;;;;;4956779;29;20204;-53
2020/12/13 08:04:16;;;;;;;39.05;21.33;;;2.90;99.90;;;;;;4956569;29;20180;-53
2020/12/13 08:06:43;;;;;;;42.65;24.00;;;3.00;99.90;;;;;;4956387;28;20286;-54
2020/12/13 08:09:12;;;;;;;37.38;18.42;;;2.90;99.90;;;;;;4956955;28;20557;-51
2020/12/13 08:11:39;;;;;;;36.72;22.98;;;2.80;99.90;;;;;;4956688;29;20179;-52
2020/12/13 08:14:08;;;;;;;37.15;18.05;;;2.80;99.90;;;;;;4956531;29;20188;-52
2020/12/13 08:16:36;;;;;;;35.10;18.00;;;2.80;99.90;;;;;;4956702;28;20493;-48
2020/12/13 08:19:16;;;;;;;35.70;19.88;;;2.80;99.90;;;;;;4956376;29;20640;-50
2020/12/13 08:21:55;;;;;;;33.10;14.68;;;2.80;99.90;;;;;;4970329;28;20207;-52
2020/12/13 08:24:23;;;;;;;30.67;17.58;;;2.80;99.90;;;;;;4975712;28;20186;-56
2020/12/13 08:26:52;;;;;;;31.27;17.55;;;2.80;99.90;;;;;;4975631;28;20228;-50
2020/12/13 08:29:20;;;;;;;26.02;16.90;;;2.90;99.90;;;;;;4974206;28;20282;-48
2020/12/13 08:31:50;;;;;;;45.80;23.33;;;2.90;99.90;;;;;;4975645;28;20176;-47
2020/12/13 08:34:25;;;;;;;39.15;20.33;;;2.90;99.90;;;;;;4975385;28;20175;-52
2020/12/13 08:36:54;;;;;;;40.58;18.45;;;3.00;99.90;;;;;;4975267;28;20214;-51
2020/12/13 08:39:29;;;;;;;50.28;20.15;;;3.00;99.90;;;;;;4975232;28;20200;-56
2020/12/13 08:41:57;;;;;;;39.50;21.45;;;3.10;99.90;;;;;;4975291;28;20695;-51
2020/12/13 08:44:27;;;;;;;47.90;24.10;;;3.20;99.90;;;;;;4975581;28;20187;-52
2020/12/13 08:46:55;;;;;;;45.47;21.75;;;3.30;99.90;;;;;;4975145;28;20212;-49
2020/12/13 08:49:34;;;;;;;33.70;16.88;;;3.40;99.90;;;;;;4975147;28;20637;-55
2020/12/13 08:52:15;;;;;;;34.90;17.88;;;3.40;99.90;;;;;;4975027;28;20215;-52
2020/12/13 08:54:58;;;;;;;47.75;20.77;;;3.50;99.90;;;;;;4974892;28;20302;-52
2020/12/13 08:57:27;;;;;;;32.20;20.83;;;3.50;99.90;;;;;;4974711;28;20195;-52
2020/12/13 09:00:06;;;;;;;43.13;23.23;;;3.50;99.90;;;;;;4975015;28;20559;-51
2020/12/13 09:02:58;;;;;;;39.10;21.88;;;3.40;99.90;;;;;;4975202;28;20218;-54
2020/12/13 09:05:29;;;;;;;35.58;19.65;;;3.40;99.90;;;;;;4975438;28;20218;-49
2020/12/13 09:07:58;;;;;;;36.10;19.10;;;3.50;99.90;;;;;;5005773;28;20214;-53
2020/12/13 09:10:27;;;;;;;35.63;18.30;;;3.60;99.90;;;;;;4989895;28;20217;-50
2020/12/13 09:12:54;;;;;;;21.77;13.35;;;3.60;99.90;;;;;;4974566;28;20183;-48
2020/12/13 09:15:24;;;;;;;39.58;19.27;;;3.50;99.90;;;;;;4974564;28;20211;-52
2020/12/13 09:17:54;;;;;;;36.85;18.95;;;3.50;99.90;;;;;;4974313;28;20554;-54
2020/12/13 09:20:26;;;;;;;30.83;18.33;;;3.60;99.90;;;;;;4974538;28;20230;-48
2020/12/13 09:23:13;;;;;;;31.05;16.50;;;3.60;99.90;;;;;;4974338;28;20633;-53
2020/12/13 09:25:42;;;;;;;33.42;17.90;;;3.60;99.90;;;;;;4974418;28;20211;-54
2020/12/13 09:28:11;;;;;;;38.15;16.17;;;3.60;99.90;;;;;;4974225;28;20200;-47
2020/12/13 09:30:40;;;;;;;34.42;18.63;;;3.60;99.90;;;;;;4974319;28;20176;-52
2020/12/13 09:33:08;;;;;;;35.30;15.73;;;3.70;99.90;;;;;;4974088;28;20238;-53
2020/12/13 09:35:35;;;;;;;30.50;15.15;;;3.50;99.90;;;;;;4974224;28;20577;-50
2020/12/13 09:38:05;;;;;;;33.13;17.33;;;3.50;99.90;;;;;;4973974;28;20199;-50
2020/12/13 09:40:33;;;;;;;35.47;18.45;;;3.40;99.90;;;;;;4974257;28;20566;-52
2020/12/13 09:43:01;;;;;;;44.75;21.17;;;3.50;99.90;;;;;;4973569;28;20204;-51
2020/12/13 09:45:29;;;;;;;35.40;15.27;;;3.50;99.90;;;;;;4974139;28;20223;-48
2020/12/13 09:47:57;;;;;;;36.88;20.15;;;3.50;99.90;;;;;;4973716;28;20267;-51
2020/12/13 09:50:24;;;;;;;39.25;19.67;;;3.60;99.90;;;;;;4973844;28;20191;-51
2020/12/13 09:52:53;;;;;;;39.83;20.08;;;3.70;99.90;;;;;;4974408;28;20190;-50
2020/12/13 09:55:20;;;;;;;38.40;19.38;;;3.70;99.90;;;;;;4974058;28;20266;-51
2020/12/13 09:57:48;;;;;;;41.00;20.98;;;3.80;99.90;;;;;;4972707;28;20660;-51
2020/12/13 10:00:16;;;;;;;26.27;16.02;;;4.00;99.90;;;;;;4960412;28;20184;-48
2020/12/13 10:02:43;;;;;;;39.50;16.30;;;4.00;99.90;;;;;;4973601;28;20635;-53
2020/12/13 10:05:18;;;;;;;39.58;17.63;;;4.10;99.90;;;;;;4973156;28;20219;-54
2020/12/13 10:10:32;;;;;;;35.20;19.38;;;4.30;99.90;;;;;;4973699;28;20180;-54
2020/12/13 10:13:00;;;;;;;36.67;19.52;;;4.00;99.90;;;;;;4973537;28;20203;-52
2020/12/13 10:15:27;;;;;;;27.05;15.98;;;3.90;99.90;;;;;;4973207;28;20617;-52
2020/12/13 10:17:54;;;;;;;38.22;19.42;;;3.80;99.90;;;;;;4971929;28;20194;-50
2020/12/13 10:20:21;;;;;;;37.83;20.90;;;3.70;99.90;;;;;;4973356;28;20188;-53
2020/12/13 10:22:48;;;;;;;36.13;20.02;;;3.80;99.90;;;;;;4972934;28;20247;-50
2020/12/13 10:25:16;;;;;;;36.33;17.10;;;3.90;99.90;;;;;;4973108;28;20254;-52
2020/12/13 10:27:44;;;;;;;48.08;19.50;;;3.90;99.90;;;;;;4972819;28;20278;-48
2020/12/13 10:30:12;;;;;;;32.05;18.33;;;4.00;99.90;;;;;;4965118;28;20191;-53
2020/12/13 10:32:39;;;;;;;24.50;18.08;;;4.20;99.90;;;;;;4956949;28;20617;-48
2020/12/13 10:35:06;;;;;;;31.73;18.52;;;4.30;99.90;;;;;;4973563;28;20207;-52
2020/12/13 10:37:33;;;;;;;42.95;20.73;;;4.50;99.90;;;;;;4973258;28;20195;-52
2020/12/13 10:40:00;;;;;;;34.60;18.73;;;4.60;99.90;;;;;;4972843;28;20199;-52
2020/12/13 10:42:28;;;;;;;38.38;19.98;;;4.70;99.90;;;;;;4972906;28;20261;-52
2020/12/13 10:44:55;;;;;;;31.05;18.42;;;4.60;99.90;;;;;;4972932;28;20194;-51
2020/12/13 10:47:24;;;;;;;31.02;19.15;;;4.70;99.90;;;;;;4972388;28;20274;-54
2020/12/13 10:49:52;;;;;;;35.15;19.05;;;4.70;99.90;;;;;;4972744;28;20204;-51
2020/12/13 10:52:19;;;;;;;32.00;17.33;;;4.70;99.90;;;;;;4970454;28;20755;-51
2020/12/13 10:54:46;;;;;;;27.85;14.05;;;4.80;99.90;;;;;;4972435;28;20183;-51
2020/12/13 10:57:14;;;;;;;23.17;14.95;;;4.50;99.90;;;;;;4967515;28;20188;-52
2020/12/13 10:59:41;;;;;;;26.80;18.08;;;4.50;99.90;;;;;;4966172;28;20253;-51
2020/12/13 11:02:10;;;;;;;35.22;17.65;;;4.60;99.90;;;;;;4958771;28;20199;-53
2020/12/13 11:04:40;;;;;;;22.55;14.77;;;4.60;99.90;;;;;;4953480;28;20283;-51
2020/12/13 11:07:08;;;;;;;33.30;17.60;;;4.60;99.90;;;;;;4973044;28;20278;-53
2020/12/13 11:09:36;;;;;;;34.30;21.00;;;4.70;99.90;;;;;;4968788;28;20231;-55
2020/12/13 11:12:04;;;;;;;28.13;15.18;;;4.90;99.90;;;;;;4968489;28;20205;-55
2020/12/13 11:14:31;;;;;;;30.50;18.17;;;5.00;99.90;;;;;;4962782;28;20194;-56
2020/12/13 11:16:58;;;;;;;33.75;20.92;;;4.90;99.90;;;;;;4967809;28;20284;-53
2020/12/13 11:19:27;;;;;;;34.45;17.67;;;5.10;99.90;;;;;;4955458;28;20665;-56
2020/12/13 11:21:57;;;;;;;30.05;18.25;;;5.00;99.90;;;;;;4954791;28;20196;-51
2020/12/13 11:24:25;;;;;;;33.78;19.42;;;5.10;99.90;;;;;;4963765;28;20595;-52
2020/12/13 11:26:52;;;;;;;34.38;18.65;;;5.20;99.90;;;;;;4967457;28;20278;-53
2020/12/13 11:29:19;;;;;;;33.15;18.35;;;5.30;99.90;;;;;;4956256;28;20185;-50
2020/12/13 11:31:46;;;;;;;38.28;19.60;;;5.40;99.90;;;;;;4957067;28;20185;-51
2020/12/13 11:34:13;;;;;;;29.15;15.82;;;5.40;99.90;;;;;;4965801;28;20179;-51
2020/12/13 11:36:41;;;;;;;26.52;17.60;;;5.30;99.90;;;;;;4956811;28;20753;-51
2020/12/13 11:39:08;;;;;;;26.35;15.13;;;5.30;99.90;;;;;;4976661;28;20180;-51
2020/12/13 11:41:36;;;;;;;23.40;14.32;;;5.30;99.90;;;;;;4976304;28;20226;-51
2020/12/13 11:44:03;;;;;;;41.10;19.17;;;5.20;99.90;;;;;;4974291;28;20208;-54
2020/12/13 11:46:30;;;;;;;37.97;19.58;;;5.20;99.90;;;;;;4975985;28;20254;-51
2020/12/13 11:48:58;;;;;;;40.17;19.98;;;5.40;99.90;;;;;;4975827;28;20222;-51
2020/12/13 11:51:26;;;;;;;33.08;16.63;;;5.40;99.90;;;;;;4976205;28;20698;-52
2020/12/13 11:53:53;;;;;;;32.20;16.48;;;5.50;99.90;;;;;;4976012;28;20184;-50
2020/12/13 11:56:22;;;;;;;30.73;16.10;;;5.40;99.90;;;;;;4970649;28;20234;-52
2020/12/13 11:58:49;;;;;;;29.02;16.55;;;5.40;99.90;;;;;;4971669;28;20560;-51
2020/12/13 12:01:19;;;;;;;31.33;18.55;;;5.40;99.90;;;;;;4964195;28;20250;-51
2020/12/13 12:03:47;;;;;;;39.15;20.95;;;5.30;99.90;;;;;;4976040;28;20204;-53
2020/12/13 12:06:15;;;;;;;32.30;17.15;;;5.30;99.90;;;;;;4975761;28;20526;-50
2020/12/13 12:08:54;;;;;;;31.98;19.40;;;5.50;99.90;;;;;;4976046;28;20617;-52
2020/12/13 12:11:25;;;;;;;33.15;17.85;;;5.70;99.90;;;;;;4975798;28;20191;-52
2020/12/13 12:13:53;;;;;;;34.25;19.52;;;5.80;99.90;;;;;;4976082;28;20217;-54
2020/12/13 12:16:26;;;;;;;30.80;19.00;;;5.80;99.90;;;;;;4975412;28;20222;-50
2020/12/13 12:18:53;;;;;;;46.85;27.65;;;5.80;99.90;;;;;;4975753;28;20258;-50
2020/12/13 12:21:23;;;;;;;60.50;33.42;;;5.80;99.90;;;;;;4975359;28;20187;-50
2020/12/13 12:23:51;;;;;;;30.95;18.17;;;5.70;99.90;;;;;;4974967;28;20196;-53
2020/12/13 12:26:19;;;;;;;43.13;25.40;;;5.50;99.90;;;;;;4975372;28;20616;-54
2020/12/13 12:28:47;;;;;;;38.95;20.13;;;5.50;99.90;;;;;;4975417;28;20198;-49
2020/12/13 12:31:17;;;;;;;31.52;18.20;;;5.60;99.90;;;;;;4972379;28;20257;-52
2020/12/13 12:33:45;;;;;;;38.25;19.85;;;5.60;99.90;;;;;;4956307;29;20191;-55
2020/12/13 12:36:16;;;;;;;46.35;21.83;;;5.60;99.90;;;;;;4958772;28;20262;-53
2020/12/13 12:38:44;;;;;;;32.97;18.85;;;5.50;99.90;;;;;;4955464;28;20550;-52
2020/12/13 12:41:12;;;;;;;28.02;18.63;;;5.50;99.90;;;;;;4968955;28;20591;-54
2020/12/13 12:43:40;;;;;;;36.63;17.77;;;5.40;99.90;;;;;;4962432;28;20756;-54
2020/12/13 12:46:09;;;;;;;39.78;20.83;;;5.20;99.90;;;;;;4974413;28;20273;-52
2020/12/13 12:48:37;;;;;;;28.48;17.17;;;5.50;99.90;;;;;;4971766;28;20199;-54
2020/12/13 12:51:06;;;;;;;27.52;16.85;;;5.50;99.90;;;;;;4974937;28;20195;-52
2020/12/13 12:53:33;;;;;;;38.60;20.90;;;5.50;99.90;;;;;;4974544;28;20554;-50